createdAt,value
2018-09-03T00:00:25.403Z,5.33
2018-09-03T00:02:53.486Z,6.10
2018-09-03T00:05:21.542Z,6.30
2018-09-03T00:07:49.581Z,6.70
2018-09-03T00:10:18.643Z,6.90
2018-09-03T00:12:46.775Z,6.37
2018-09-03T00:15:14.843Z,5.37
2018-09-03T00:17:42.889Z,6.53
2018-09-03T00:20:10.947Z,6.83
2018-09-03T00:22:39.029Z,6.67
2018-09-03T00:25:07.671Z,6.93
2018-09-03T00:27:35.713Z,5.60
2018-09-03T00:30:03.877Z,6.47
2018-09-03T00:32:38.019Z,6.47
2018-09-03T00:35:11.697Z,5.20
2018-09-03T00:37:45.334Z,7.07
2018-09-03T00:40:19.920Z,6.57
2018-09-03T00:42:53.317Z,5.90
2018-09-03T00:45:26.698Z,5.70
2018-09-03T00:47:54.728Z,6.07
2018-09-03T00:50:22.786Z,6.60
2018-09-03T00:52:50.846Z,6.47
2018-09-03T00:55:18.897Z,6.50
2018-09-03T00:57:46.957Z,6.40
2018-09-03T01:00:15.009Z,6.10
2018-09-03T01:02:43.062Z,6.20
2018-09-03T01:05:11.097Z,7.47
2018-09-03T01:07:39.133Z,5.80
2018-09-03T01:10:07.193Z,6.50
2018-09-03T01:12:35.225Z,6.83
2018-09-03T01:15:03.273Z,6.37
2018-09-03T01:17:31.396Z,6.40
2018-09-03T01:19:59.440Z,6.80
2018-09-03T01:22:27.509Z,6.53
2018-09-03T01:24:55.578Z,5.53
2018-09-03T01:27:23.637Z,7.50
2018-09-03T01:29:51.857Z,7.70
2018-09-03T01:32:19.927Z,7.73
2018-09-03T01:34:47.999Z,6.83
2018-09-03T01:37:16.084Z,6.97
2018-09-03T01:39:44.129Z,9.07
2018-09-03T01:42:12.302Z,8.00
2018-09-03T01:44:40.325Z,7.30
2018-09-03T01:47:08.390Z,7.20
2018-09-03T01:49:36.481Z,7.00
2018-09-03T01:52:04.553Z,6.67
2018-09-03T01:54:32.602Z,6.07
2018-09-03T01:57:00.670Z,6.63
2018-09-03T01:59:28.717Z,7.03
2018-09-03T02:01:56.808Z,6.47
2018-09-03T02:04:24.877Z,7.63
2018-09-03T02:06:52.938Z,7.80
2018-09-03T02:09:20.988Z,7.53
2018-09-03T02:11:49.046Z,8.33
2018-09-03T02:14:17.154Z,7.97
2018-09-03T02:16:45.188Z,7.87
2018-09-03T02:19:14.074Z,7.50
2018-09-03T02:21:42.132Z,7.90
2018-09-03T02:24:10.224Z,8.87
2018-09-03T02:26:38.300Z,7.20
2018-09-03T02:29:06.345Z,7.87
2018-09-03T02:31:34.399Z,8.03
2018-09-03T02:34:02.450Z,7.13
2018-09-03T02:36:30.518Z,7.83
2018-09-03T02:38:58.577Z,8.13
2018-09-03T02:41:26.633Z,8.13
2018-09-03T02:43:54.697Z,7.77
2018-09-03T02:46:22.768Z,8.40
2018-09-03T02:48:50.858Z,7.93
2018-09-03T02:51:18.991Z,7.90
2018-09-03T02:53:47.057Z,8.07
2018-09-03T02:56:15.119Z,8.23
2018-09-03T02:58:43.218Z,7.43
2018-09-03T03:01:11.261Z,8.13
2018-09-03T03:03:39.298Z,8.43
2018-09-03T03:06:07.353Z,8.23
2018-09-03T03:08:35.435Z,8.33
2018-09-03T03:11:03.481Z,9.00
2018-09-03T03:13:31.535Z,8.20
2018-09-03T03:15:59.598Z,8.00
2018-09-03T03:18:27.662Z,8.77
2018-09-03T03:20:55.718Z,7.30
2018-09-03T03:23:23.767Z,8.47
2018-09-03T03:25:51.818Z,8.67
2018-09-03T03:28:19.887Z,8.53
2018-09-03T03:30:47.931Z,8.77
2018-09-03T03:33:16.108Z,8.87
2018-09-03T03:35:44.154Z,8.30
2018-09-03T03:38:12.209Z,8.47
2018-09-03T03:40:40.262Z,8.60
2018-09-03T03:43:08.357Z,8.43
2018-09-03T03:45:36.401Z,9.53
2018-09-03T03:48:04.480Z,8.67
2018-09-03T03:50:32.538Z,9.90
2018-09-03T03:53:00.594Z,8.90
2018-09-03T03:55:28.656Z,9.63
2018-09-03T03:57:56.734Z,8.40
2018-09-03T04:00:25.096Z,11.10
2018-09-03T04:02:54.008Z,10.10
2018-09-03T04:05:22.063Z,9.93
2018-09-03T04:07:50.102Z,9.53
2018-09-03T04:10:18.195Z,9.60
2018-09-03T04:12:51.558Z,9.80
2018-09-03T04:15:19.618Z,9.00
2018-09-03T04:17:47.678Z,10.17
2018-09-03T04:20:15.745Z,10.00
2018-09-03T04:22:43.798Z,10.97
2018-09-03T04:25:11.858Z,10.07
2018-09-03T04:27:39.910Z,11.57
2018-09-03T04:30:07.974Z,11.37
2018-09-03T04:32:36.039Z,10.70
2018-09-03T04:35:05.097Z,10.30
2018-09-03T04:37:33.134Z,10.97
2018-09-03T04:40:01.178Z,9.47
2018-09-03T04:42:29.233Z,10.07
2018-09-03T04:44:57.312Z,10.47
2018-09-03T04:47:25.407Z,10.07
2018-09-03T04:49:53.490Z,9.43
2018-09-03T04:52:22.049Z,9.83
2018-09-03T04:54:50.282Z,9.30
2018-09-03T04:57:18.338Z,9.20
2018-09-03T04:59:46.421Z,8.80
2018-09-03T05:02:14.780Z,8.90
2018-09-03T05:04:42.860Z,11.47
2018-09-03T05:07:10.902Z,9.43
2018-09-03T05:09:39.006Z,8.70
2018-09-03T05:12:07.158Z,9.50
2018-09-03T05:14:35.361Z,9.70
2018-09-03T05:17:03.457Z,9.90
2018-09-03T05:19:31.560Z,9.23
2018-09-03T05:21:59.623Z,9.13
2018-09-03T05:24:27.704Z,9.10
2018-09-03T05:26:55.761Z,9.00
2018-09-03T05:29:24.306Z,8.83
2018-09-03T05:31:52.384Z,8.10
2018-09-03T05:34:20.445Z,9.30
2018-09-03T05:36:48.502Z,8.20
2018-09-03T05:39:16.545Z,8.10
2018-09-03T05:41:44.617Z,8.10
2018-09-03T05:44:12.654Z,7.73
2018-09-03T05:46:40.702Z,7.00
2018-09-03T05:49:08.872Z,8.23
2018-09-03T05:51:37.137Z,8.67
2018-09-03T05:54:05.229Z,8.10
2018-09-03T05:56:33.317Z,8.53
2018-09-03T05:59:01.393Z,7.87
2018-09-03T06:01:29.411Z,8.60
2018-09-03T06:03:57.464Z,8.07
2018-09-03T06:06:25.517Z,8.23
2018-09-03T06:08:53.574Z,8.73
2018-09-03T06:11:22.377Z,7.67
2018-09-03T06:13:50.421Z,7.90
2018-09-03T06:16:18.793Z,8.70
2018-09-03T06:18:46.834Z,7.90
2018-09-03T06:21:14.897Z,7.77
2018-09-03T06:23:43.003Z,7.60
2018-09-03T06:26:12.642Z,8.00
2018-09-03T06:28:40.705Z,7.33
2018-09-03T06:31:08.789Z,7.60
2018-09-03T06:33:36.849Z,7.80
2018-09-03T06:36:04.915Z,6.90
2018-09-03T06:38:32.969Z,7.20
2018-09-03T06:41:01.031Z,8.60
2018-09-03T06:43:29.078Z,8.27
2018-09-03T06:45:57.208Z,7.43
2018-09-03T06:48:25.193Z,7.77
2018-09-03T06:50:53.252Z,7.53
2018-09-03T06:53:21.362Z,8.17
2018-09-03T06:55:49.374Z,7.90
2018-09-03T06:58:17.426Z,7.33
2018-09-03T07:00:45.471Z,8.97
2018-09-03T07:03:13.781Z,7.10
2018-09-03T07:05:41.897Z,7.70
2018-09-03T07:08:09.953Z,7.50
2018-09-03T07:10:38.033Z,8.10
2018-09-03T07:13:07.265Z,8.37
2018-09-03T07:15:36.057Z,8.33
2018-09-03T07:18:04.546Z,9.30
2018-09-03T07:20:32.593Z,8.63
2018-09-03T07:23:00.777Z,7.90
2018-09-03T07:25:28.980Z,8.90
2018-09-03T07:27:57.065Z,8.30
2018-09-03T07:30:25.199Z,8.40
2018-09-03T07:32:53.265Z,8.43
2018-09-03T07:35:21.333Z,9.40
2018-09-03T07:37:49.387Z,9.73
2018-09-03T07:40:17.541Z,8.70
2018-09-03T07:42:45.590Z,8.37
2018-09-03T07:45:13.690Z,8.10
2018-09-03T07:47:41.768Z,7.93
2018-09-03T07:50:09.817Z,8.10
2018-09-03T07:52:37.861Z,8.60
2018-09-03T07:55:06.043Z,7.87
2018-09-03T07:57:34.079Z,7.70
2018-09-03T08:00:02.134Z,8.03
2018-09-03T08:02:30.180Z,8.67
2018-09-03T08:04:58.219Z,7.90
2018-09-03T08:07:26.312Z,7.13
2018-09-03T08:09:54.810Z,8.27
2018-09-03T08:12:22.870Z,7.70
2018-09-03T08:14:50.913Z,7.50
2018-09-03T08:17:18.972Z,8.50
2018-09-03T08:19:47.048Z,7.57
2018-09-03T08:22:15.108Z,7.67
2018-09-03T08:24:43.157Z,8.37
2018-09-03T08:27:11.353Z,7.70
2018-09-03T08:29:39.430Z,7.90
2018-09-03T08:32:07.485Z,7.80
2018-09-03T08:34:35.555Z,7.40
2018-09-03T08:37:03.585Z,8.40
2018-09-03T08:39:31.625Z,8.67
2018-09-03T08:41:59.677Z,7.43
2018-09-03T08:44:27.726Z,7.63
2018-09-03T08:46:55.782Z,7.73
2018-09-03T08:49:24.378Z,7.53
2018-09-03T08:51:52.440Z,7.53
2018-09-03T08:54:20.541Z,8.27
2018-09-03T08:56:48.626Z,7.83
2018-09-03T08:59:16.666Z,8.60
2018-09-03T09:01:44.718Z,8.07
2018-09-03T09:04:12.778Z,8.57
2018-09-03T09:06:40.809Z,8.13
2018-09-03T09:09:09.351Z,7.97
2018-09-03T09:11:37.413Z,8.20
2018-09-03T09:14:05.476Z,7.80
2018-09-03T09:16:33.839Z,7.37
2018-09-03T09:19:01.929Z,7.60
2018-09-03T09:21:30.041Z,8.40
2018-09-03T09:23:58.131Z,8.90
2018-09-03T09:26:26.321Z,7.90
2018-09-03T09:28:54.377Z,7.77
2018-09-03T09:31:22.985Z,8.00
2018-09-03T09:33:51.041Z,7.97
2018-09-03T09:36:19.105Z,8.33
2018-09-03T09:38:47.189Z,8.23
2018-09-03T09:41:15.475Z,8.10
2018-09-03T09:43:44.227Z,9.00
2018-09-03T09:46:12.277Z,9.23
2018-09-03T09:48:40.333Z,8.97
2018-09-03T09:51:08.421Z,9.70
2018-09-03T09:53:36.585Z,8.60
2018-09-03T09:56:04.672Z,9.07
2018-09-03T09:58:32.716Z,9.50
2018-09-03T10:01:06.205Z,9.87
2018-09-03T10:03:34.485Z,24.37
2018-09-03T10:06:02.539Z,11.07
2018-09-03T10:08:30.605Z,9.53
2018-09-03T10:10:58.766Z,9.47
2018-09-03T10:13:26.837Z,10.30
2018-09-03T10:15:55.070Z,10.40
2018-09-03T10:18:23.113Z,10.23
2018-09-03T10:20:51.218Z,9.50
2018-09-03T10:23:19.251Z,10.90
2018-09-03T10:25:47.302Z,9.47
2018-09-03T10:28:15.379Z,10.27
2018-09-03T10:30:43.436Z,11.00
2018-09-03T10:33:11.488Z,10.37
2018-09-03T10:35:39.560Z,10.73
2018-09-03T10:38:07.694Z,12.27
2018-09-03T10:40:35.694Z,10.10
2018-09-03T10:43:03.818Z,9.30
2018-09-03T10:45:32.007Z,10.67
2018-09-03T10:48:00.060Z,10.10
2018-09-03T10:50:28.099Z,10.20
2018-09-03T10:52:56.148Z,11.17
2018-09-03T10:55:24.227Z,10.50
2018-09-03T10:57:52.315Z,11.30
2018-09-03T11:00:20.382Z,10.13
2018-09-03T11:02:48.442Z,11.20
2018-09-03T11:05:16.583Z,12.10
2018-09-03T11:07:44.571Z,11.17
2018-09-03T11:10:12.641Z,12.17
2018-09-03T11:12:40.736Z,10.67
2018-09-03T11:15:08.799Z,10.30
2018-09-03T11:17:36.856Z,10.40
2018-09-03T11:20:07.477Z,10.63
2018-09-03T11:22:35.507Z,10.90
2018-09-03T11:25:04.033Z,11.03
2018-09-03T11:27:32.080Z,10.97
2018-09-03T11:30:00.198Z,11.07
2018-09-03T11:32:28.261Z,10.53
2018-09-03T11:35:02.857Z,11.40
2018-09-03T11:37:30.878Z,10.90
2018-09-03T11:39:59.161Z,11.87
2018-09-03T11:42:27.230Z,9.80
2018-09-03T11:44:55.302Z,12.20
2018-09-03T11:47:24.318Z,11.63
2018-09-03T11:49:52.385Z,12.13
2018-09-03T11:52:20.455Z,11.30
2018-09-03T11:54:48.552Z,13.67
2018-09-03T11:57:16.605Z,12.10
2018-09-03T11:59:44.668Z,11.30
2018-09-03T12:02:12.730Z,12.77
2018-09-03T12:04:40.764Z,11.47
2018-09-03T12:07:08.967Z,12.17
2018-09-03T12:09:37.029Z,11.87
2018-09-03T12:12:05.968Z,11.20
2018-09-03T12:14:36.909Z,11.30
2018-09-03T12:17:05.925Z,11.77
2018-09-03T12:19:33.991Z,12.30
2018-09-03T12:22:02.205Z,12.30
2018-09-03T12:24:30.479Z,13.10
2018-09-03T12:26:58.563Z,11.10
2018-09-03T12:29:26.633Z,11.67
2018-09-03T12:31:54.986Z,12.50
2018-09-03T12:34:23.668Z,12.03
2018-09-03T12:36:51.765Z,11.70
2018-09-03T12:39:19.777Z,12.27
2018-09-03T12:41:47.839Z,11.90
2018-09-03T12:44:15.881Z,12.20
2018-09-03T12:46:43.965Z,12.60
2018-09-03T12:49:12.034Z,13.30
2018-09-03T12:51:40.118Z,12.23
2018-09-03T12:54:08.170Z,12.70
2018-09-03T12:56:36.229Z,11.97
2018-09-03T12:59:04.348Z,13.00
2018-09-03T13:01:32.465Z,13.50
2018-09-03T13:04:00.569Z,13.60
2018-09-03T13:06:28.775Z,15.73
2018-09-03T13:08:56.829Z,15.60
2018-09-03T13:11:24.985Z,13.20
2018-09-03T13:13:53.036Z,13.10
2018-09-03T13:16:21.115Z,13.60
2018-09-03T13:18:49.246Z,13.80
2018-09-03T13:21:17.294Z,12.70
2018-09-03T13:23:45.735Z,14.50
2018-09-03T13:26:13.808Z,14.57
2018-09-03T13:28:41.866Z,13.00
2018-09-03T13:31:09.942Z,14.20
2018-09-03T13:33:37.984Z,16.13
2018-09-03T13:36:06.059Z,12.80
2018-09-03T13:38:34.126Z,13.27
2018-09-03T13:41:02.345Z,14.33
2018-09-03T13:43:30.399Z,13.80
2018-09-03T13:45:58.445Z,14.73
2018-09-03T13:48:26.489Z,13.73
2018-09-03T13:50:54.659Z,13.20
2018-09-03T13:53:22.726Z,13.27
2018-09-03T13:55:50.795Z,14.50
2018-09-03T13:58:18.858Z,14.97
2018-09-03T14:00:46.919Z,14.90
2018-09-03T14:03:15.186Z,15.23
2018-09-03T14:05:43.357Z,14.03
2018-09-03T14:08:11.631Z,13.53
2018-09-03T14:10:39.703Z,14.03
2018-09-03T14:13:07.815Z,13.10
2018-09-03T14:15:35.908Z,13.53
2018-09-03T14:18:03.961Z,13.77
2018-09-03T14:20:32.341Z,15.63
2018-09-03T14:23:00.377Z,13.27
2018-09-03T14:25:28.457Z,16.07
2018-09-03T14:27:56.528Z,14.10
2018-09-03T14:30:24.602Z,12.20
2018-09-03T14:32:52.663Z,15.00
2018-09-03T14:35:20.736Z,15.40
2018-09-03T14:37:48.807Z,14.50
2018-09-03T14:40:16.905Z,14.10
2018-09-03T14:42:45.184Z,14.77
2018-09-03T14:45:13.222Z,14.50
2018-09-03T14:47:41.295Z,13.70
2018-09-03T14:50:09.346Z,14.13
2018-09-03T14:52:37.492Z,14.87
2018-09-03T14:55:05.653Z,15.00
2018-09-03T14:57:33.777Z,14.90
2018-09-03T15:00:01.835Z,14.63
2018-09-03T15:02:29.910Z,13.53
2018-09-03T15:04:57.968Z,14.90
2018-09-03T15:07:26.042Z,14.63
2018-09-03T15:09:54.550Z,14.70
2018-09-03T15:12:22.621Z,15.47
2018-09-03T15:14:50.758Z,15.30
2018-09-03T15:17:18.793Z,15.83
2018-09-03T15:19:46.850Z,14.70
2018-09-03T15:22:14.910Z,14.97
2018-09-03T15:24:42.970Z,15.40
2018-09-03T15:27:11.030Z,12.73
2018-09-03T15:29:39.099Z,15.53
2018-09-03T15:32:07.166Z,15.47
2018-09-03T15:34:35.242Z,14.20
2018-09-03T15:37:03.304Z,14.50
2018-09-03T15:39:31.347Z,15.23
2018-09-03T15:41:59.415Z,13.70
2018-09-03T15:44:27.453Z,14.10
2018-09-03T15:46:55.531Z,14.67
2018-09-03T15:49:23.613Z,15.10
2018-09-03T15:51:51.669Z,13.10
2018-09-03T15:54:19.725Z,14.80
2018-09-03T15:56:47.786Z,14.70
2018-09-03T15:59:15.854Z,13.53
2018-09-03T16:01:43.920Z,13.53
2018-09-03T16:04:11.983Z,11.97
2018-09-03T16:06:40.046Z,12.10
2018-09-03T16:09:09.142Z,11.40
2018-09-03T16:11:37.335Z,11.90
2018-09-03T16:14:06.074Z,10.77
2018-09-03T16:16:34.118Z,11.60
2018-09-03T16:19:02.201Z,12.37
2018-09-03T16:21:30.477Z,11.23
2018-09-03T16:23:58.542Z,11.07
2018-09-03T16:26:26.645Z,10.77
2018-09-03T16:28:54.711Z,11.67
2018-09-03T16:31:22.777Z,10.67
2018-09-03T16:33:50.835Z,10.63
2018-09-03T16:36:18.896Z,11.13
2018-09-03T16:38:46.975Z,10.30
2018-09-03T16:41:15.026Z,10.47
2018-09-03T16:43:44.051Z,9.70
2018-09-03T16:46:12.113Z,10.07
2018-09-03T16:48:40.192Z,10.60
2018-09-03T16:51:08.265Z,9.47
2018-09-03T16:53:36.365Z,9.77
2018-09-03T16:56:05.390Z,9.57
2018-09-03T16:58:33.434Z,10.40
2018-09-03T17:01:01.547Z,10.40
2018-09-03T17:03:29.546Z,9.90
2018-09-03T17:05:57.592Z,11.13
2018-09-03T17:08:25.685Z,10.27
2018-09-03T17:10:53.717Z,9.53
2018-09-03T17:13:21.824Z,10.17
2018-09-03T17:15:49.879Z,9.63
2018-09-03T17:18:17.925Z,10.57
2018-09-03T17:20:45.986Z,9.87
2018-09-03T17:23:14.098Z,10.03
2018-09-03T17:25:42.145Z,9.73
2018-09-03T17:28:10.233Z,9.70
2018-09-03T17:30:38.288Z,10.70
2018-09-03T17:33:06.898Z,9.27
2018-09-03T17:35:34.937Z,9.60
2018-09-03T17:38:02.974Z,8.70
2018-09-03T17:40:31.038Z,7.90
2018-09-03T17:42:59.189Z,9.40
2018-09-03T17:45:27.241Z,8.50
2018-09-03T17:47:55.320Z,8.80
2018-09-03T17:50:23.381Z,8.50
2018-09-03T17:52:51.453Z,8.70
2018-09-03T17:55:19.505Z,8.07
2018-09-03T17:57:47.546Z,9.10
2018-09-03T18:00:15.886Z,7.90
2018-09-03T18:02:44.145Z,8.43
2018-09-03T18:05:12.241Z,9.53
2018-09-03T18:07:40.779Z,9.20
2018-09-03T18:10:08.838Z,9.00
2018-09-03T18:12:36.920Z,9.20
2018-09-03T18:15:05.001Z,8.80
2018-09-03T18:17:33.113Z,9.73
2018-09-03T18:20:01.194Z,7.67
2018-09-03T18:22:29.250Z,8.10
2018-09-03T18:24:57.340Z,9.33
2018-09-03T18:27:25.427Z,9.40
2018-09-03T18:29:53.494Z,8.80
2018-09-03T18:32:21.554Z,8.10
2018-09-03T18:34:49.622Z,7.93
2018-09-03T18:37:17.721Z,7.90
2018-09-03T18:39:47.082Z,8.80
2018-09-03T18:42:15.146Z,8.53
2018-09-03T18:44:44.183Z,8.07
2018-09-03T18:47:12.223Z,8.43
2018-09-03T18:49:40.373Z,8.27
2018-09-03T18:52:08.753Z,7.20
2018-09-03T18:54:36.893Z,8.63
2018-09-03T18:57:04.934Z,7.83
2018-09-03T18:59:33.018Z,8.77
2018-09-03T19:02:02.066Z,8.43
2018-09-03T19:04:30.129Z,8.47
2018-09-03T19:06:58.206Z,7.47
2018-09-03T19:09:26.270Z,8.07
2018-09-03T19:11:54.333Z,7.87
2018-09-03T19:14:22.404Z,7.77
2018-09-03T19:16:50.485Z,8.17
2018-09-03T19:19:18.530Z,7.43
2018-09-03T19:21:46.609Z,6.70
2018-09-03T19:24:14.673Z,7.30
2018-09-03T19:26:43.274Z,7.40
2018-09-03T19:29:11.405Z,7.83
2018-09-03T19:31:39.709Z,7.67
2018-09-03T19:34:07.806Z,7.33
2018-09-03T19:36:36.510Z,7.67
2018-09-03T19:39:06.142Z,7.10
2018-09-03T19:41:34.221Z,7.03
2018-09-03T19:44:02.345Z,8.50
2018-09-03T19:46:30.399Z,7.63
2018-09-03T19:48:58.466Z,7.13
2018-09-03T19:51:26.516Z,8.00
2018-09-03T19:53:54.616Z,7.40
2018-09-03T19:56:22.693Z,7.37
2018-09-03T19:58:50.803Z,7.70
2018-09-03T20:01:18.878Z,7.10
2018-09-03T20:03:46.948Z,7.17
2018-09-03T20:06:15.056Z,7.57
2018-09-03T20:08:43.049Z,8.87
2018-09-03T20:11:11.135Z,7.73
2018-09-03T20:13:39.400Z,8.00
2018-09-03T20:16:07.504Z,7.40
2018-09-03T20:18:35.545Z,7.27
2018-09-03T20:21:03.662Z,8.00
2018-09-03T20:23:31.828Z,7.20
2018-09-03T20:25:59.877Z,7.87
2018-09-03T20:28:28.005Z,8.57
2018-09-03T20:30:56.044Z,7.80
2018-09-03T20:33:24.107Z,7.93
2018-09-03T20:35:52.199Z,7.80
2018-09-03T20:38:20.414Z,7.37
2018-09-03T20:40:48.511Z,7.63
2018-09-03T20:43:16.608Z,7.40
2018-09-03T20:45:44.733Z,7.17
2018-09-03T20:48:12.937Z,7.40
2018-09-03T20:50:41.563Z,7.87
2018-09-03T20:53:09.703Z,7.40
2018-09-03T20:55:37.855Z,6.73
2018-09-03T20:58:06.141Z,7.67
2018-09-03T21:00:34.216Z,7.97
2018-09-03T21:03:02.290Z,7.20
2018-09-03T21:05:30.353Z,7.27
2018-09-03T21:07:58.414Z,7.80
2018-09-03T21:10:26.520Z,6.13
2018-09-03T21:12:54.578Z,7.37
2018-09-03T21:15:22.638Z,6.20
2018-09-03T21:17:50.706Z,6.60
2018-09-03T21:20:18.761Z,6.57
2018-09-03T21:22:46.994Z,6.37
2018-09-03T21:25:15.073Z,7.53
2018-09-03T21:27:43.106Z,7.07
2018-09-03T21:30:11.149Z,7.23
2018-09-03T21:32:39.193Z,6.90
2018-09-03T21:35:07.322Z,6.40
2018-09-03T21:37:35.582Z,6.73
2018-09-03T21:40:03.628Z,6.10
2018-09-03T21:42:31.697Z,6.80
2018-09-03T21:44:59.733Z,6.33
2018-09-03T21:47:27.781Z,7.20
2018-09-03T21:49:55.829Z,7.03
2018-09-03T21:52:23.870Z,6.03
2018-09-03T21:54:51.938Z,7.17
2018-09-03T21:57:20.119Z,6.23
2018-09-03T21:59:48.213Z,7.53
2018-09-03T22:02:16.272Z,5.50
2018-09-03T22:04:44.326Z,6.27
2018-09-03T22:07:12.635Z,5.87
2018-09-03T22:09:40.821Z,5.87
2018-09-03T22:12:09.083Z,6.53
2018-09-03T22:14:37.140Z,6.13
2018-09-03T22:17:05.194Z,6.03
2018-09-03T22:19:33.260Z,6.60
2018-09-03T22:22:01.317Z,6.07
2018-09-03T22:24:29.378Z,5.93
2018-09-03T22:26:57.468Z,6.30
2018-09-03T22:29:25.550Z,6.53
2018-09-03T22:31:53.658Z,6.03
2018-09-03T22:34:21.711Z,6.20
2018-09-03T22:36:49.753Z,6.03
2018-09-03T22:39:17.799Z,5.73
2018-09-03T22:41:45.852Z,6.33
2018-09-03T22:44:13.892Z,5.90
2018-09-03T22:46:41.974Z,6.30
2018-09-03T22:49:10.025Z,5.77
2018-09-03T22:51:38.080Z,6.27
2018-09-03T22:54:06.147Z,5.67
2018-09-03T22:56:34.190Z,5.77
2018-09-03T22:59:02.290Z,5.60
2018-09-03T23:01:30.334Z,5.60
2018-09-03T23:03:58.423Z,6.20
2018-09-03T23:06:26.758Z,5.20
2018-09-03T23:08:54.859Z,6.00
2018-09-03T23:11:23.101Z,5.93
2018-09-03T23:13:51.165Z,5.57
2018-09-03T23:16:19.234Z,5.87
2018-09-03T23:18:47.325Z,5.17
2018-09-03T23:21:15.397Z,5.83
2018-09-03T23:23:43.613Z,6.53
2018-09-03T23:26:11.653Z,5.60
2018-09-03T23:28:39.742Z,5.47
2018-09-03T23:31:07.806Z,5.57
2018-09-03T23:33:35.881Z,5.60
2018-09-03T23:36:03.960Z,4.80
2018-09-03T23:38:32.009Z,5.80
2018-09-03T23:41:00.059Z,5.90
2018-09-03T23:43:29.095Z,5.97
2018-09-03T23:45:57.125Z,4.93
2018-09-03T23:48:25.186Z,5.60
2018-09-03T23:50:53.252Z,5.67
2018-09-03T23:53:21.298Z,5.80
2018-09-03T23:55:49.347Z,5.73
2018-09-03T23:58:17.395Z,4.90
